sensor_id;sensor_type;location;lat;lon;timestamp;pressure;altitude;pressure_sealevel;temperature;humidity
11124;BME280;5616;42.692;23.312;2022-10-16T00:00:41;95771.53;;;10.36;86.82
11124;BME280;5616;42.692;23.312;2022-10-16T00:03:09;95782.69;;;10.37;86.92
11124;BME280;5616;42.692;23.312;2022-10-16T00:05:41;95777.19;;;10.32;87.03
11124;BME280;5616;42.692;23.312;2022-10-16T00:08:09;95789.78;;;10.35;87.00
11124;BME280;5616;42.692;23.312;2022-10-16T00:10:36;95787.19;;;10.27;87.61
11124;BME280;5616;42.692;23.312;2022-10-16T00:13:03;95788.16;;;10.18;88.21
11124;BME280;5616;42.692;23.312;2022-10-16T00:15:32;95793.13;;;10.11;88.12
11124;BME280;5616;42.692;23.312;2022-10-16T00:18:03;95799.91;;;10.20;88.37
11124;BME280;5616;42.692;23.312;2022-10-16T00:20:33;95788.16;;;10.18;87.31
11124;BME280;5616;42.692;23.312;2022-10-16T00:23:02;95795.09;;;10.25;87.49
11124;BME280;5616;42.692;23.312;2022-10-16T00:25:29;95799.78;;;10.22;87.65
11124;BME280;5616;42.692;23.312;2022-10-16T00:27:58;95800.88;;;10.19;87.89
11124;BME280;5616;42.692;23.312;2022-10-16T00:30:25;95799.25;;;10.10;87.87
11124;BME280;5616;42.692;23.312;2022-10-16T00:32:53;95808.75;;;10.02;88.53
11124;BME280;5616;42.692;23.312;2022-10-16T00:35:21;95808.75;;;10.02;88.64
11124;BME280;5616;42.692;23.312;2022-10-16T00:37:48;95815.84;;;10.00;88.70
11124;BME280;5616;42.692;23.312;2022-10-16T00:40:15;95811.97;;;10.04;88.64
11124;BME280;5616;42.692;23.312;2022-10-16T00:42:42;95812.94;;;9.95;88.23
11124;BME280;5616;42.692;23.312;2022-10-16T00:45:09;95810.50;;;9.93;88.42
11124;BME280;5616;42.692;23.312;2022-10-16T00:47:39;95805.69;;;9.90;88.60
11124;BME280;5616;42.692;23.312;2022-10-16T00:50:08;95802.88;;;9.75;89.17
11124;BME280;5616;42.692;23.312;2022-10-16T00:52:41;95799.97;;;9.70;88.86
11124;BME280;5616;42.692;23.312;2022-10-16T00:55:09;95797.56;;;9.69;88.99
11124;BME280;5616;42.692;23.312;2022-10-16T00:57:37;95795.47;;;9.72;88.72
11124;BME280;5616;42.692;23.312;2022-10-16T01:00:07;95800.13;;;9.61;89.06
11124;BME280;5616;42.692;23.312;2022-10-16T01:02:35;95805.94;;;9.63;89.20
11124;BME280;5616;42.692;23.312;2022-10-16T01:05:03;95797.66;;;9.51;89.18
11124;BME280;5616;42.692;23.312;2022-10-16T01:07:39;95811.03;;;9.47;89.23
11124;BME280;5616;42.692;23.312;2022-10-16T01:10:17;95811.97;;;9.46;90.06
11124;BME280;5616;42.692;23.312;2022-10-16T01:12:52;95807.16;;;9.43;90.05
11124;BME280;5616;42.692;23.312;2022-10-16T01:15:25;95816.00;;;9.40;89.66
11124;BME280;5616;42.692;23.312;2022-10-16T01:17:57;95800.19;;;9.35;90.05
11124;BME280;5616;42.692;23.312;2022-10-16T01:20:29;95814.38;;;9.39;89.73
11124;BME280;5616;42.692;23.312;2022-10-16T01:23:05;95796.69;;;9.44;90.58
11124;BME280;5616;42.692;23.312;2022-10-16T01:28:41;95800.06;;;9.45;89.77
11124;BME280;5616;42.692;23.312;2022-10-16T01:31:15;95799.25;;;9.44;90.40
11124;BME280;5616;42.692;23.312;2022-10-16T01:33:46;95795.56;;;9.47;90.08
11124;BME280;5616;42.692;23.312;2022-10-16T01:36:16;95807.03;;;9.52;89.54
11124;BME280;5616;42.692;23.312;2022-10-16T01:38:46;95804.72;;;9.41;90.27
11124;BME280;5616;42.692;23.312;2022-10-16T01:41:17;95802.94;;;9.34;90.28
11124;BME280;5616;42.692;23.312;2022-10-16T01:43:49;95802.31;;;9.40;90.83
11124;BME280;5616;42.692;23.312;2022-10-16T01:46:21;95800.00;;;9.29;90.34
11124;BME280;5616;42.692;23.312;2022-10-16T01:48:50;95807.91;;;9.35;90.68
11124;BME280;5616;42.692;23.312;2022-10-16T01:51:19;95811.63;;;9.41;89.43
11124;BME280;5616;42.692;23.312;2022-10-16T01:53:49;95812.16;;;9.44;89.19
11124;BME280;5616;42.692;23.312;2022-10-16T01:56:20;95815.38;;;9.46;88.91
11124;BME280;5616;42.692;23.312;2022-10-16T01:58:52;95816.94;;;9.31;90.20
11124;BME280;5616;42.692;23.312;2022-10-16T02:01:23;95822.91;;;9.32;90.20
11124;BME280;5616;42.692;23.312;2022-10-16T02:03:54;95817.53;;;9.25;89.95
11124;BME280;5616;42.692;23.312;2022-10-16T02:06:23;95820.13;;;9.25;90.50
11124;BME280;5616;42.692;23.312;2022-10-16T02:08:50;95822.34;;;9.20;89.78
11124;BME280;5616;42.692;23.312;2022-10-16T02:11:17;95829.25;;;9.19;90.43
11124;BME280;5616;42.692;23.312;2022-10-16T02:13:46;95832.13;;;9.08;90.56
11124;BME280;5616;42.692;23.312;2022-10-16T02:16:16;95830.84;;;9.12;91.39
11124;BME280;5616;42.692;23.312;2022-10-16T02:18:43;95835.19;;;9.12;90.87
11124;BME280;5616;42.692;23.312;2022-10-16T02:21:13;95836.41;;;9.00;91.46
11124;BME280;5616;42.692;23.312;2022-10-16T02:23:48;95841.41;;;9.01;92.09
11124;BME280;5616;42.692;23.312;2022-10-16T02:26:23;95839.53;;;9.11;90.89
11124;BME280;5616;42.692;23.312;2022-10-16T02:28:55;95845.78;;;9.09;91.27
11124;BME280;5616;42.692;23.312;2022-10-16T02:31:28;95847.31;;;8.94;92.76
11124;BME280;5616;42.692;23.312;2022-10-16T02:34:00;95839.34;;;9.05;91.51
11124;BME280;5616;42.692;23.312;2022-10-16T02:36:27;95844.50;;;9.05;91.92
11124;BME280;5616;42.692;23.312;2022-10-16T02:38:55;95843.34;;;8.99;91.92
11124;BME280;5616;42.692;23.312;2022-10-16T02:41:23;95833.97;;;8.98;92.04
11124;BME280;5616;42.692;23.312;2022-10-16T02:43:50;95842.81;;;8.96;91.86
11124;BME280;5616;42.692;23.312;2022-10-16T02:46:17;95844.75;;;8.94;92.12
11124;BME280;5616;42.692;23.312;2022-10-16T02:48:46;95850.06;;;8.92;91.86
11124;BME280;5616;42.692;23.312;2022-10-16T02:51:13;95845.84;;;8.91;91.36
11124;BME280;5616;42.692;23.312;2022-10-16T02:53:40;95851.81;;;8.92;91.94
11124;BME280;5616;42.692;23.312;2022-10-16T02:56:07;95849.09;;;8.93;91.05
11124;BME280;5616;42.692;23.312;2022-10-16T02:58:33;95859.44;;;9.01;91.10
11124;BME280;5616;42.692;23.312;2022-10-16T03:01:00;95871.56;;;9.09;90.33
11124;BME280;5616;42.692;23.312;2022-10-16T03:03:27;95864.16;;;9.06;90.08
11124;BME280;5616;42.692;23.312;2022-10-16T03:05:55;95863.41;;;9.13;88.94
11124;BME280;5616;42.692;23.312;2022-10-16T03:08:22;95862.72;;;9.11;89.08
11124;BME280;5616;42.692;23.312;2022-10-16T03:10:51;95861.19;;;9.01;89.92
11124;BME280;5616;42.692;23.312;2022-10-16T03:13:18;95865.22;;;8.95;90.09
11124;BME280;5616;42.692;23.312;2022-10-16T03:15:45;95865.00;;;8.89;89.58
11124;BME280;5616;42.692;23.312;2022-10-16T03:18:12;95865.28;;;8.86;89.94
11124;BME280;5616;42.692;23.312;2022-10-16T03:20:39;95871.72;;;8.82;90.27
11124;BME280;5616;42.692;23.312;2022-10-16T03:23:08;95866.94;;;8.87;89.65
11124;BME280;5616;42.692;23.312;2022-10-16T03:25:35;95871.84;;;8.80;89.84
11124;BME280;5616;42.692;23.312;2022-10-16T03:28:01;95874.06;;;8.75;90.30
11124;BME280;5616;42.692;23.312;2022-10-16T03:30:28;95872.78;;;8.71;90.63
11124;BME280;5616;42.692;23.312;2022-10-16T03:32:55;95878.22;;;8.68;90.31
11124;BME280;5616;42.692;23.312;2022-10-16T03:35:23;95874.75;;;8.59;90.70
11124;BME280;5616;42.692;23.312;2022-10-16T03:37:51;95871.88;;;8.63;90.81
11124;BME280;5616;42.692;23.312;2022-10-16T03:40:19;95872.84;;;8.61;91.29
11124;BME280;5616;42.692;23.312;2022-10-16T03:42:46;95872.06;;;8.61;91.50
11124;BME280;5616;42.692;23.312;2022-10-16T03:45:12;95873.66;;;8.62;91.35
11124;BME280;5616;42.692;23.312;2022-10-16T03:47:39;95877.34;;;8.59;91.13
11124;BME280;5616;42.692;23.312;2022-10-16T03:50:07;95867.78;;;8.52;91.89
11124;BME280;5616;42.692;23.312;2022-10-16T03:52:34;95865.56;;;8.57;92.03
11124;BME280;5616;42.692;23.312;2022-10-16T03:55:01;95848.31;;;8.49;91.30
11124;BME280;5616;42.692;23.312;2022-10-16T03:57:29;95869.25;;;8.54;92.35
11124;BME280;5616;42.692;23.312;2022-10-16T03:59:56;95859.41;;;8.50;91.77
11124;BME280;5616;42.692;23.312;2022-10-16T04:02:23;95865.16;;;8.44;91.89
11124;BME280;5616;42.692;23.312;2022-10-16T04:04:50;95862.44;;;8.45;92.78
11124;BME280;5616;42.692;23.312;2022-10-16T04:07:17;95866.47;;;8.48;91.78
11124;BME280;5616;42.692;23.312;2022-10-16T04:09:43;95870.59;;;8.58;91.20
11124;BME280;5616;42.692;23.312;2022-10-16T04:12:10;95873.06;;;8.68;90.51
11124;BME280;5616;42.692;23.312;2022-10-16T04:14:38;95869.38;;;8.71;90.16
11124;BME280;5616;42.692;23.312;2022-10-16T04:17:05;95872.78;;;8.71;90.13
11124;BME280;5616;42.692;23.312;2022-10-16T04:19:32;95869.84;;;8.66;89.67
11124;BME280;5616;42.692;23.312;2022-10-16T04:21:59;95866.81;;;8.71;89.99
11124;BME280;5616;42.692;23.312;2022-10-16T04:24:25;95875.13;;;8.65;89.78
11124;BME280;5616;42.692;23.312;2022-10-16T04:26:52;95870.63;;;8.67;89.51
11124;BME280;5616;42.692;23.312;2022-10-16T04:29:19;95877.03;;;8.63;89.90
11124;BME280;5616;42.692;23.312;2022-10-16T04:31:47;95886.38;;;8.64;90.41
11124;BME280;5616;42.692;23.312;2022-10-16T04:34:14;95885.34;;;8.56;89.75
11124;BME280;5616;42.692;23.312;2022-10-16T04:36:41;95881.47;;;8.52;90.90
11124;BME280;5616;42.692;23.312;2022-10-16T04:39:08;95883.88;;;8.54;89.77
11124;BME280;5616;42.692;23.312;2022-10-16T04:41:35;95886.75;;;8.51;90.39
11124;BME280;5616;42.692;23.312;2022-10-16T04:44:02;95874.25;;;8.38;90.71
11124;BME280;5616;42.692;23.312;2022-10-16T04:46:29;95882.63;;;8.40;89.98
11124;BME280;5616;42.692;23.312;2022-10-16T04:48:57;95893.38;;;8.36;90.89
11124;BME280;5616;42.692;23.312;2022-10-16T04:51:24;95896.41;;;8.31;91.18
11124;BME280;5616;42.692;23.312;2022-10-16T04:53:52;95898.88;;;8.41;91.48
11124;BME280;5616;42.692;23.312;2022-10-16T04:56:19;95903.63;;;8.45;91.31
11124;BME280;5616;42.692;23.312;2022-10-16T04:58:46;95905.66;;;8.42;90.84
11124;BME280;5616;42.692;23.312;2022-10-16T05:01:13;95905.13;;;8.38;91.31
11124;BME280;5616;42.692;23.312;2022-10-16T05:03:40;95913.03;;;8.37;91.61
11124;BME280;5616;42.692;23.312;2022-10-16T05:06:08;95914.78;;;8.36;91.24
11124;BME280;5616;42.692;23.312;2022-10-16T05:08:36;95918.81;;;8.39;92.10
11124;BME280;5616;42.692;23.312;2022-10-16T05:11:03;95915.50;;;8.46;92.20
11124;BME280;5616;42.692;23.312;2022-10-16T05:13:29;95922.88;;;8.41;92.31
11124;BME280;5616;42.692;23.312;2022-10-16T05:15:56;95919.06;;;8.45;92.14
11124;BME280;5616;42.692;23.312;2022-10-16T05:18:23;95926.25;;;8.59;91.24
11124;BME280;5616;42.692;23.312;2022-10-16T05:20:50;95923.44;;;8.71;90.28
11124;BME280;5616;42.692;23.312;2022-10-16T05:23:18;95920.13;;;8.78;90.17
11124;BME280;5616;42.692;23.312;2022-10-16T05:25:52;95917.84;;;8.93;89.24
11124;BME280;5616;42.692;23.312;2022-10-16T05:28:19;95924.81;;;9.00;89.76
11124;BME280;5616;42.692;23.312;2022-10-16T05:30:46;95931.25;;;9.04;89.01
11124;BME280;5616;42.692;23.312;2022-10-16T05:33:13;95927.38;;;9.00;88.94
11124;BME280;5616;42.692;23.312;2022-10-16T05:35:40;95935.00;;;9.10;87.97
11124;BME280;5616;42.692;23.312;2022-10-16T05:38:06;95926.38;;;9.19;88.56
11124;BME280;5616;42.692;23.312;2022-10-16T05:40:35;95925.13;;;9.23;88.57
11124;BME280;5616;42.692;23.312;2022-10-16T05:43:01;95927.53;;;9.24;88.00
11124;BME280;5616;42.692;23.312;2022-10-16T05:45:28;95923.69;;;9.29;87.61
11124;BME280;5616;42.692;23.312;2022-10-16T05:47:55;95935.81;;;9.36;87.58
11124;BME280;5616;42.692;23.312;2022-10-16T05:50:22;95937.94;;;9.41;87.59
11124;BME280;5616;42.692;23.312;2022-10-16T05:52:48;95919.06;;;9.32;86.59
11124;BME280;5616;42.692;23.312;2022-10-16T05:55:15;95946.56;;;9.57;86.57
11124;BME280;5616;42.692;23.312;2022-10-16T05:57:43;95941.63;;;9.64;86.25
11124;BME280;5616;42.692;23.312;2022-10-16T06:00:11;95950.66;;;9.68;86.05
11124;BME280;5616;42.692;23.312;2022-10-16T06:02:41;95951.97;;;9.72;86.19
11124;BME280;5616;42.692;23.312;2022-10-16T06:05:08;95960.25;;;9.83;86.04
11124;BME280;5616;42.692;23.312;2022-10-16T06:07:35;95960.94;;;9.94;84.86
11124;BME280;5616;42.692;23.312;2022-10-16T06:10:03;95973.81;;;9.94;84.11
11124;BME280;5616;42.692;23.312;2022-10-16T06:12:30;95972.41;;;9.99;84.20
11124;BME280;5616;42.692;23.312;2022-10-16T06:14:58;95969.03;;;10.07;83.85
11124;BME280;5616;42.692;23.312;2022-10-16T06:17:25;95977.00;;;10.13;83.41
11124;BME280;5616;42.692;23.312;2022-10-16T06:19:51;95985.41;;;10.15;82.91
11124;BME280;5616;42.692;23.312;2022-10-16T06:22:18;95978.50;;;10.24;82.52
11124;BME280;5616;42.692;23.312;2022-10-16T06:24:45;95981.13;;;10.32;82.54
11124;BME280;5616;42.692;23.312;2022-10-16T06:27:13;95984.34;;;10.34;82.39
11124;BME280;5616;42.692;23.312;2022-10-16T06:29:39;95994.81;;;10.40;82.18
11124;BME280;5616;42.692;23.312;2022-10-16T06:32:09;95982.09;;;10.39;81.89
11124;BME280;5616;42.692;23.312;2022-10-16T06:34:36;95985.97;;;10.43;81.80
11124;BME280;5616;42.692;23.312;2022-10-16T06:37:05;95985.19;;;10.51;82.24
11124;BME280;5616;42.692;23.312;2022-10-16T06:39:32;95995.69;;;10.57;82.15
11124;BME280;5616;42.692;23.312;2022-10-16T06:41:59;95994.41;;;10.61;81.77
11124;BME280;5616;42.692;23.312;2022-10-16T06:44:31;95992.50;;;10.71;80.84
11124;BME280;5616;42.692;23.312;2022-10-16T06:46:58;95973.09;;;10.67;80.44
11124;BME280;5616;42.692;23.312;2022-10-16T06:49:27;96003.66;;;10.88;80.27
11124;BME280;5616;42.692;23.312;2022-10-16T06:51:54;96012.38;;;10.87;80.24
11124;BME280;5616;42.692;23.312;2022-10-16T06:54:20;96008.00;;;10.79;80.69
11124;BME280;5616;42.692;23.312;2022-10-16T06:56:47;96011.25;;;10.97;80.19
11124;BME280;5616;42.692;23.312;2022-10-16T06:59:14;96022.56;;;11.13;79.72
11124;BME280;5616;42.692;23.312;2022-10-16T07:01:41;96015.78;;;11.20;79.30
11124;BME280;5616;42.692;23.312;2022-10-16T07:04:07;96008.38;;;11.17;79.74
11124;BME280;5616;42.692;23.312;2022-10-16T07:06:36;96018.69;;;11.33;78.43
11124;BME280;5616;42.692;23.312;2022-10-16T07:09:04;96017.41;;;11.45;77.89
11124;BME280;5616;42.692;23.312;2022-10-16T07:11:32;96015.75;;;11.60;76.65
11124;BME280;5616;42.692;23.312;2022-10-16T07:13:59;96013.81;;;11.62;76.95
11124;BME280;5616;42.692;23.312;2022-10-16T07:16:27;96021.59;;;11.70;75.85
11124;BME280;5616;42.692;23.312;2022-10-16T07:18:54;96019.66;;;11.64;76.50
11124;BME280;5616;42.692;23.312;2022-10-16T07:21:25;96015.25;;;11.64;76.70
11124;BME280;5616;42.692;23.312;2022-10-16T07:23:54;96022.41;;;11.79;75.44
11124;BME280;5616;42.692;23.312;2022-10-16T07:26:21;96023.03;;;11.64;76.67
11124;BME280;5616;42.692;23.312;2022-10-16T07:28:48;96018.03;;;11.87;75.21
11124;BME280;5616;42.692;23.312;2022-10-16T07:31:17;96022.66;;;12.08;74.00
11124;BME280;5616;42.692;23.312;2022-10-16T07:33:45;96020.53;;;12.11;75.07
11124;BME280;5616;42.692;23.312;2022-10-16T07:36:14;96029.88;;;12.20;73.93
11124;BME280;5616;42.692;23.312;2022-10-16T07:38:41;96020.81;;;12.24;73.95
11124;BME280;5616;42.692;23.312;2022-10-16T07:41:11;96022.50;;;12.48;72.58
11124;BME280;5616;42.692;23.312;2022-10-16T07:43:38;96014.53;;;12.50;72.41
11124;BME280;5616;42.692;23.312;2022-10-16T07:46:06;96018.72;;;12.59;71.83
11124;BME280;5616;42.692;23.312;2022-10-16T07:48:34;96022.56;;;12.63;72.43
11124;BME280;5616;42.692;23.312;2022-10-16T07:51:02;96015.56;;;12.71;71.57
11124;BME280;5616;42.692;23.312;2022-10-16T07:53:29;96030.03;;;12.88;71.12
11124;BME280;5616;42.692;23.312;2022-10-16T07:55:58;96031.31;;;12.93;71.44
11124;BME280;5616;42.692;23.312;2022-10-16T07:58:26;96034.94;;;13.14;70.38
11124;BME280;5616;42.692;23.312;2022-10-16T08:00:53;96032.56;;;13.27;69.65
11124;BME280;5616;42.692;23.312;2022-10-16T08:03:20;96027.25;;;13.21;69.42
11124;BME280;5616;42.692;23.312;2022-10-16T08:05:47;96031.00;;;13.18;69.51
11124;BME280;5616;42.692;23.312;2022-10-16T08:08:16;96030.88;;;13.34;69.94
11124;BME280;5616;42.692;23.312;2022-10-16T08:10:43;96034.06;;;13.59;68.47
11124;BME280;5616;42.692;23.312;2022-10-16T08:13:10;96030.63;;;13.67;67.73
11124;BME280;5616;42.692;23.312;2022-10-16T08:15:39;96030.63;;;13.81;67.63
11124;BME280;5616;42.692;23.312;2022-10-16T08:18:06;96026.16;;;13.90;67.05
11124;BME280;5616;42.692;23.312;2022-10-16T08:20:33;96024.66;;;14.10;65.93
11124;BME280;5616;42.692;23.312;2022-10-16T08:23:00;96017.47;;;14.12;65.68
11124;BME280;5616;42.692;23.312;2022-10-16T08:25:27;96019.56;;;14.17;65.58
11124;BME280;5616;42.692;23.312;2022-10-16T08:27:54;96019.00;;;14.21;65.06
11124;BME280;5616;42.692;23.312;2022-10-16T08:30:22;96021.50;;;14.29;65.54
11124;BME280;5616;42.692;23.312;2022-10-16T08:32:51;96019.13;;;14.42;64.26
11124;BME280;5616;42.692;23.312;2022-10-16T08:35:17;96024.47;;;14.55;64.43
11124;BME280;5616;42.692;23.312;2022-10-16T08:37:44;96016.72;;;14.62;63.81
11124;BME280;5616;42.692;23.312;2022-10-16T08:40:17;96017.88;;;14.74;63.58
11124;BME280;5616;42.692;23.312;2022-10-16T08:42:59;96017.78;;;14.82;63.52
11124;BME280;5616;42.692;23.312;2022-10-16T08:45:41;96016.75;;;14.98;61.72
11124;BME280;5616;42.692;23.312;2022-10-16T08:48:18;96023.50;;;14.92;62.78
11124;BME280;5616;42.692;23.312;2022-10-16T08:50:47;96025.66;;;15.10;60.85
11124;BME280;5616;42.692;23.312;2022-10-16T08:53:18;96027.31;;;15.17;60.56
11124;BME280;5616;42.692;23.312;2022-10-16T08:55:50;96024.97;;;15.22;62.71
11124;BME280;5616;42.692;23.312;2022-10-16T08:58:19;96027.91;;;15.34;60.80
11124;BME280;5616;42.692;23.312;2022-10-16T09:00:48;96025.69;;;15.52;59.44
11124;BME280;5616;42.692;23.312;2022-10-16T09:03:34;96031.72;;;15.59;57.55
11124;BME280;5616;42.692;23.312;2022-10-16T09:06:12;96030.03;;;15.73;55.83
11124;BME280;5616;42.692;23.312;2022-10-16T09:08:47;96030.69;;;15.75;56.33
11124;BME280;5616;42.692;23.312;2022-10-16T09:11:27;96024.31;;;15.84;54.94
11124;BME280;5616;42.692;23.312;2022-10-16T09:14:07;96019.56;;;15.94;55.67
11124;BME280;5616;42.692;23.312;2022-10-16T09:16:42;96015.84;;;16.10;55.08
11124;BME280;5616;42.692;23.312;2022-10-16T09:19:16;96015.31;;;16.21;53.80
11124;BME280;5616;42.692;23.312;2022-10-16T09:21:46;96013.38;;;16.36;53.04
11124;BME280;5616;42.692;23.312;2022-10-16T09:24:16;96014.25;;;16.43;53.22
11124;BME280;5616;42.692;23.312;2022-10-16T09:26:44;96014.25;;;16.49;52.77
11124;BME280;5616;42.692;23.312;2022-10-16T09:29:11;96014.72;;;16.53;52.58
11124;BME280;5616;42.692;23.312;2022-10-16T09:31:39;96018.97;;;16.61;51.04
11124;BME280;5616;42.692;23.312;2022-10-16T09:34:11;96012.16;;;16.66;51.49
11124;BME280;5616;42.692;23.312;2022-10-16T09:36:46;96007.59;;;16.75;52.05
11124;BME280;5616;42.692;23.312;2022-10-16T09:39:12;96010.56;;;16.72;50.61
11124;BME280;5616;42.692;23.312;2022-10-16T09:41:42;96012.38;;;16.71;50.95
11124;BME280;5616;42.692;23.312;2022-10-16T09:44:19;96004.34;;;16.66;50.08
11124;BME280;5616;42.692;23.312;2022-10-16T09:46:47;96019.22;;;16.72;49.71
11124;BME280;5616;42.692;23.312;2022-10-16T09:49:23;96008.56;;;16.74;50.08
11124;BME280;5616;42.692;23.312;2022-10-16T09:52:03;96002.19;;;16.83;52.37
11124;BME280;5616;42.692;23.312;2022-10-16T09:54:30;96002.44;;;17.01;50.92
11124;BME280;5616;42.692;23.312;2022-10-16T09:57:04;95988.38;;;17.08;50.05
11124;BME280;5616;42.692;23.312;2022-10-16T09:59:32;95995.63;;;17.13;49.88
11124;BME280;5616;42.692;23.312;2022-10-16T10:02:02;95991.81;;;17.42;66.34
11124;BME280;5616;42.692;23.312;2022-10-16T10:04:39;95995.03;;;17.31;51.47
11124;BME280;5616;42.692;23.312;2022-10-16T10:07:17;95977.75;;;17.36;51.43
11124;BME280;5616;42.692;23.312;2022-10-16T10:09:45;95987.19;;;17.44;50.40
11124;BME280;5616;42.692;23.312;2022-10-16T10:12:19;95986.63;;;17.55;49.06
11124;BME280;5616;42.692;23.312;2022-10-16T10:14:47;95977.38;;;17.52;48.73
11124;BME280;5616;42.692;23.312;2022-10-16T10:17:17;95981.41;;;17.68;48.89
11124;BME280;5616;42.692;23.312;2022-10-16T10:19:48;95982.81;;;17.70;50.08
11124;BME280;5616;42.692;23.312;2022-10-16T10:22:24;95981.78;;;17.78;51.02
11124;BME280;5616;42.692;23.312;2022-10-16T10:28:20;95983.16;;;18.00;48.38
11124;BME280;5616;42.692;23.312;2022-10-16T10:30:55;95978.97;;;17.93;61.50
11124;BME280;5616;42.692;23.312;2022-10-16T10:33:31;95968.09;;;17.89;50.51
11124;BME280;5616;42.692;23.312;2022-10-16T10:36:12;95973.34;;;17.96;50.11
11124;BME280;5616;42.692;23.312;2022-10-16T10:38:49;95960.66;;;18.06;49.23
11124;BME280;5616;42.692;23.312;2022-10-16T10:44:55;95959.03;;;18.05;47.61
11124;BME280;5616;42.692;23.312;2022-10-16T10:47:35;95945.59;;;17.95;48.16
11124;BME280;5616;42.692;23.312;2022-10-16T10:50:14;95953.22;;;18.09;48.84
11124;BME280;5616;42.692;23.312;2022-10-16T10:52:53;95949.16;;;18.20;48.62
11124;BME280;5616;42.692;23.312;2022-10-16T10:55:31;95954.34;;;18.26;47.84
11124;BME280;5616;42.692;23.312;2022-10-16T11:01:10;95941.38;;;18.45;48.05
11124;BME280;5616;42.692;23.312;2022-10-16T11:03:52;95949.47;;;18.37;49.35
11124;BME280;5616;42.692;23.312;2022-10-16T11:06:26;95940.81;;;18.43;46.62
11124;BME280;5616;42.692;23.312;2022-10-16T11:08:58;95939.81;;;18.44;47.89
11124;BME280;5616;42.692;23.312;2022-10-16T11:11:32;95943.47;;;18.29;48.21
11124;BME280;5616;42.692;23.312;2022-10-16T11:14:05;95942.09;;;18.20;48.09
11124;BME280;5616;42.692;23.312;2022-10-16T11:16:35;95944.06;;;18.31;47.22
11124;BME280;5616;42.692;23.312;2022-10-16T11:19:11;95931.22;;;18.23;48.74
11124;BME280;5616;42.692;23.312;2022-10-16T11:21:43;95928.81;;;18.22;48.55
11124;BME280;5616;42.692;23.312;2022-10-16T11:24:18;95928.44;;;18.18;51.52
11124;BME280;5616;42.692;23.312;2022-10-16T11:26:49;95928.78;;;18.28;47.84
11124;BME280;5616;42.692;23.312;2022-10-16T11:29:23;95923.72;;;18.33;45.59
11124;BME280;5616;42.692;23.312;2022-10-16T11:31:54;95929.34;;;18.44;45.59
11124;BME280;5616;42.692;23.312;2022-10-16T11:34:27;95925.75;;;18.38;44.82
11124;BME280;5616;42.692;23.312;2022-10-16T11:36:59;95925.09;;;18.49;44.41
11124;BME280;5616;42.692;23.312;2022-10-16T11:39:29;95923.47;;;18.55;44.46
11124;BME280;5616;42.692;23.312;2022-10-16T11:42:03;95932.16;;;18.49;45.96
11124;BME280;5616;42.692;23.312;2022-10-16T11:44:43;95927.53;;;18.51;45.01
11124;BME280;5616;42.692;23.312;2022-10-16T11:47:26;95921.47;;;18.50;45.53
11124;BME280;5616;42.692;23.312;2022-10-16T11:49:59;95928.13;;;18.46;46.22
11124;BME280;5616;42.692;23.312;2022-10-16T11:52:31;95929.94;;;18.39;46.10
11124;BME280;5616;42.692;23.312;2022-10-16T11:55:04;95926.28;;;18.47;44.61
11124;BME280;5616;42.692;23.312;2022-10-16T11:57:40;95926.91;;;18.42;44.94
11124;BME280;5616;42.692;23.312;2022-10-16T12:00:21;95919.44;;;18.59;43.54
11124;BME280;5616;42.692;23.312;2022-10-16T12:02:57;95918.56;;;18.65;43.55
11124;BME280;5616;42.692;23.312;2022-10-16T12:05:35;95923.81;;;18.65;43.59
11124;BME280;5616;42.692;23.312;2022-10-16T12:08:09;95927.78;;;18.74;44.18
11124;BME280;5616;42.692;23.312;2022-10-16T12:10:38;95929.34;;;18.81;44.45
11124;BME280;5616;42.692;23.312;2022-10-16T12:13:29;95920.16;;;18.72;43.93
11124;BME280;5616;42.692;23.312;2022-10-16T12:16:04;95919.09;;;18.80;44.50
11124;BME280;5616;42.692;23.312;2022-10-16T12:18:31;95921.19;;;18.65;44.76
11124;BME280;5616;42.692;23.312;2022-10-16T12:20:59;95924.59;;;18.72;44.06
11124;BME280;5616;42.692;23.312;2022-10-16T12:23:31;95922.13;;;18.77;46.20
11124;BME280;5616;42.692;23.312;2022-10-16T12:25:59;95924.69;;;18.83;44.41
11124;BME280;5616;42.692;23.312;2022-10-16T12:28:30;95925.72;;;18.82;43.86
11124;BME280;5616;42.692;23.312;2022-10-16T12:31:00;95925.09;;;18.87;44.95
11124;BME280;5616;42.692;23.312;2022-10-16T12:33:29;95923.88;;;18.89;45.82
11124;BME280;5616;42.692;23.312;2022-10-16T12:35:57;95922.22;;;18.95;43.44
11124;BME280;5616;42.692;23.312;2022-10-16T12:38:26;95927.78;;;19.05;42.92
11124;BME280;5616;42.692;23.312;2022-10-16T12:40:57;95921.28;;;19.14;42.66
11124;BME280;5616;42.692;23.312;2022-10-16T12:43:35;95927.50;;;19.20;42.39
11124;BME280;5616;42.692;23.312;2022-10-16T12:46:06;95914.75;;;19.23;42.97
11124;BME280;5616;42.692;23.312;2022-10-16T12:48:47;95925.38;;;19.28;46.12
11124;BME280;5616;42.692;23.312;2022-10-16T12:51:25;95918.75;;;19.26;44.90
11124;BME280;5616;42.692;23.312;2022-10-16T12:53:59;95923.81;;;19.27;43.15
11124;BME280;5616;42.692;23.312;2022-10-16T12:56:35;95927.84;;;18.99;43.47
11124;BME280;5616;42.692;23.312;2022-10-16T12:59:12;95922.19;;;19.02;43.45
11124;BME280;5616;42.692;23.312;2022-10-16T13:01:55;95929.66;;;18.98;44.72
11124;BME280;5616;42.692;23.312;2022-10-16T13:04:42;95929.59;;;19.05;44.19
11124;BME280;5616;42.692;23.312;2022-10-16T13:07:25;95935.06;;;19.03;42.91
11124;BME280;5616;42.692;23.312;2022-10-16T13:10:05;95935.22;;;19.08;43.43
11124;BME280;5616;42.692;23.312;2022-10-16T13:15:44;95927.94;;;19.10;44.71
11124;BME280;5616;42.692;23.312;2022-10-16T13:18:19;95922.81;;;18.97;44.01
11124;BME280;5616;42.692;23.312;2022-10-16T13:20:58;95933.25;;;19.04;41.99
11124;BME280;5616;42.692;23.312;2022-10-16T13:23:32;95923.28;;;19.12;43.85
11124;BME280;5616;42.692;23.312;2022-10-16T13:26:11;95930.72;;;19.15;41.74
11124;BME280;5616;42.692;23.312;2022-10-16T13:28:40;95925.50;;;19.15;44.12
11124;BME280;5616;42.692;23.312;2022-10-16T13:31:14;95927.75;;;19.12;42.89
11124;BME280;5616;42.692;23.312;2022-10-16T13:33:46;95932.00;;;19.06;42.58
11124;BME280;5616;42.692;23.312;2022-10-16T13:36:20;95930.09;;;18.88;43.39